• Join FlightAware (Why Join?)
  • Login
  • US Flag 
07:02PM EDT


 

Airport Tracker/Info


-or-


 

Live Flight TrackerFlight Track Log ✈ ASQ5685 ✈ 05-Dec-2013 ✈ KATL - KIAD

Flight Track Log - Related Links

Times and Time Zones

All times are in EST time to prevent confusion due to time zone crossing. See the ASQ5685 flight status page for this flight to view local times or setup timezone preferences in your user account.

Time Position Orientation Groundspeed Altitude Reporting Facility
EST Latitude Longitude Course Direction KTS MPH feet Rate Location/Type
09:45AM 33.6353 -84.3756 69° East 390 449 2,400  Level Atlanta Center
09:47AM 33.6333 -84.2667 91° East 291 335 4,300 2,100 Climbing Atlanta TRACON
09:48AM 33.9635 -84.0389 53° Northeast  Level Estimated
09:48AM 33.6333 -84.1667 90° East 299 344 7,000  Level Atlanta TRACON
09:48AM 33.6439 -84.0936 80° East 316 364 8,600 2,040 Climbing Atlanta Center
09:49AM 34.0046 -83.9095 69° East  Level FlightAware Approximate
09:49AM 33.7003 -84.0139 50° Northeast 310 357 10,900  Level Atlanta Center
09:50AM 34.0456 -83.7799 69° East  Level FlightAware Approximate
09:50AM 33.7711 -83.9239 47° Northeast 347 399 11,800  Level Atlanta Center
09:51AM 34.0865 -83.6503 69° East  Level FlightAware Approximate
09:51AM 33.8442 -83.8286 47° Northeast 370 426 12,900  Level Atlanta Center
09:52AM 33.9192 -83.7308 47° Northeast 382 440 14,400 1,440 Climbing Atlanta Center
09:53AM 33.9878 -83.6253 52° Northeast 388 447 15,800 1,200 Climbing Atlanta Center
09:54AM 34.0561 -83.5147 53° Northeast 405 466 16,800 960 Climbing Atlanta Center
09:55AM 34.1267 -83.4014 53° Northeast 410 472 17,800 900 Climbing Atlanta Center
09:56AM 34.1989 -83.2853 53° Northeast 427 491 18,600 900 Climbing Atlanta Center
09:57AM 34.2733 -83.1692 52° Northeast 432 497 19,600 960 Climbing Atlanta Center
09:58AM 34.3456 -83.0500 54° Northeast 438 504 20,600 1,020 Climbing Atlanta Center
09:59AM 34.4175 -82.9358 53° Northeast 431 496 21,700 1,020 Climbing Atlanta Center
10:00AM 34.4894 -82.8139 54° Northeast 433 498 22,700 840 Climbing Atlanta Center
10:01AM 34.5508 -82.7072 55° Northeast 439 505 23,400 600 Climbing Atlanta Center
10:02AM 34.6372 -82.5819 50° Northeast 439 505 24,000 540 Climbing Atlanta Center
10:03AM 34.7108 -82.4594 54° Northeast 439 505 24,500 480 Climbing Atlanta Center
10:04AM 34.7864 -82.3342 54° Northeast 446 513 25,000 480 Climbing Atlanta Center
10:05AM 34.8636 -82.2061 54° Northeast 452 520 25,500 480 Climbing Atlanta Center
10:06AM 34.9350 -82.0981 51° Northeast 457 526 26,000 480 Climbing Atlanta Center
10:07AM 35.0122 -81.9719 53° Northeast 457 526 26,500 480 Climbing Atlanta Center
10:08AM 35.0831 -81.8381 57° Northeast 463 533 27,000 480 Climbing Atlanta Center
10:09AM 35.1536 -81.7042 57° Northeast 463 533 27,500 480 Climbing Atlanta Center
10:10AM 35.2219 -81.5725 58° Northeast 468 539 28,000 480 Climbing Atlanta Center
10:11AM 35.2922 -81.4408 57° Northeast 463 533 28,500 480 Climbing Atlanta Center
10:12AM 35.3603 -81.3061 58° Northeast 463 533 29,000 240 Climbing Atlanta Center
10:13AM 35.4281 -81.1714 58° Northeast 463 533 29,000  Level Atlanta Center
10:14AM 35.5000 -81.0336 57° Northeast 468 539 29,000  Level Atlanta Center
10:15AM 35.5697 -80.9008 57° Northeast 468 539 29,000  Level Atlanta Center
10:16AM 35.6372 -80.7731 57° Northeast 456 525 29,000  Level Atlanta Center
10:17AM 35.7028 -80.6478 57° Northeast 446 513 29,000  Level Atlanta Center
10:18AM 35.7758 -80.5064 57° Northeast 446 513 29,000  Level Atlanta Center
10:19AM 35.8392 -80.3833 58° Northeast 446 513 29,000  Level Atlanta Center
10:20AM 35.9019 -80.2575 58° Northeast 441 507 29,000  Level Atlanta Center
10:21AM 35.9650 -80.1339 58° Northeast 436 502 29,000  Level Atlanta Center
10:24AM 36.1222 -79.8453 56° Northeast 436 502 29,000  Level Washington Center
10:25AM 36.1914 -79.7203 56° Northeast 436 502 29,000 -240 Level Washington Center
10:26AM 36.2772 -79.5831 52° Northeast 447 514 28,600 -480 Descending Washington Center
10:27AM 36.3714 -79.4486 49° Northeast 460 529 28,100 -540 Descending Washington Center
10:28AM 36.4564 -79.3339 47° Northeast 473 544 27,600 -540 Descending Washington Center
10:29AM 36.5481 -79.2092 48° Northeast 484 557 27,100 -540 Descending Washington Center
10:30AM 36.6436 -79.0814 47° Northeast 492 566 26,600 -540 Descending Washington Center
10:31AM 36.7458 -78.9331 49° Northeast 503 579 26,100 -540 Descending Washington Center
10:32AM 36.8414 -78.7997 48° Northeast 503 579 25,600 -540 Descending Washington Center
10:33AM 36.9256 -78.6836 48° Northeast 503 579 25,100 -300 Descending Washington Center
10:34AM 37.0167 -78.5547 48° Northeast 503 579 25,000 -60 Descending Washington Center
10:35AM 37.1050 -78.4306 48° Northeast 498 573 25,000  Level Washington Center
10:36AM 37.2042 -78.2933 48° Northeast 486 559 25,000  Level Washington Center
10:37AM 37.3067 -78.1950 37° Northeast 467 537 25,000 -240 Level Washington Center
10:38AM 37.4022 -78.1119 35° Northeast 462 532 24,600 -480 Descending Washington Center
10:39AM 37.5106 -78.0189 34° Northeast 462 532 24,100 -660 Descending Washington Center
10:40AM 37.6228 -77.9281 33° Northeast 467 537 23,300 -1,920 Descending Washington Center
10:41AM 37.7331 -77.8317 35° Northeast 475 547 20,400 -2,760 Descending Washington Center
10:42AM 37.8411 -77.7400 34° Northeast 470 541 17,800 -2,700 Descending Washington Center
10:43AM 37.9386 -77.6561 34° Northeast 451 519 15,100 -2,880 Descending Washington Center
10:44AM 38.0444 -77.5667 34° Northeast 428 493 12,100 -2,520 Descending Washington Center
10:45AM 38.1333 -77.4897 34° Northeast 408 470 10,000 -1,080 Descending Washington Center
10:46AM 38.2092 -77.4308 31° Northeast 360 414 10,000 -540 Level Washington Center
10:47AM 38.2869 -77.3853 25° Northeast 325 374 9,000 -1,140 Descending Washington Center
10:48AM 38.3689 -77.3581 15° North 303 349 7,800 -1,200 Descending Washington Center
10:49AM 38.4500 -77.3600 359° North 290 334 6,600 -1,200 Descending Washington Center
10:50AM 38.5250 -77.3644 357° North 285 328 5,500 -900 Descending Washington Center
10:51AM 38.6000 -77.3661 359° North 277 319 4,800 -900 Descending Washington Center
10:52AM 38.6667 -77.3667 360° North 276 318 4,000 -480 Descending Potomac TRACON
10:53AM 38.7500 -77.3500 North 270 311 4,000  Level Potomac TRACON
10:54AM 38.8167 -77.3500 360° North 269 310 4,000  Level Potomac TRACON
10:55AM 38.8833 -77.3500 360° North 272 313 4,000  Level Potomac TRACON
10:56AM 38.9667 -77.3500 360° North 275 316 4,000 -240 Level Potomac TRACON
10:57AM 39.0333 -77.3500 360° North 265 305 3,600 -480 Descending Potomac TRACON
10:58AM 39.1167 -77.3500 360° North 270 311 3,100 -300 Descending Potomac TRACON
10:59AM 39.1833 -77.3500 360° North 269 310 3,000 -300 Descending Potomac TRACON
11:00AM 39.2333 -77.3833 333° Northwest 226 260 2,600 -420 Descending Potomac TRACON
11:01AM 39.1833 -77.4333 218° Southwest 198 228 2,200 -300 Descending Potomac TRACON
11:02AM 39.1333 -77.4333 180° South 171 197 2,000 -120 Descending Potomac TRACON
11:03AM 39.1000 -77.4333 180° South 158 182 2,000  Level Potomac TRACON
11:04AM 39.0500 -77.4333 180° South 163 188 2,000 -300 Level Potomac TRACON
11:05AM 39.0167 -77.4333 180° South 134 154 1,500 -660 Descending Potomac TRACON
11:06AM 38.9667 -77.4333 180° South 135 155 700 -840 Descending Potomac TRACON